Time;durP1;ratioP1;P1;durP2;ratioP2;P2;SDS_P1;SDS_P2;PMS_P1;PMS_P2;Temp;Humidity;BMP_temperature;BMP_pressure;BME280_temperature;BME280_humidity;BME280_pressure;Samples;Min_cycle;Max_cycle;Signal;HPM_P1;HPM_P2
2021/12/22 00:00:37;;;;;;;34.22;16.23;;;;;;;-1.36;100.00;102415.44;5066010;28;20032;-77
2021/12/22 00:03:05;;;;;;;31.13;14.88;;;;;;;-1.32;100.00;102432.75;5050404;28;20040;-77
2021/12/22 00:05:31;;;;;;;31.30;15.55;;;;;;;-1.47;100.00;102396.53;5085182;28;20131;-77
2021/12/22 00:07:58;;;;;;;34.30;16.23;;;;;;;-1.47;100.00;102401.78;5071035;28;20110;-77
2021/12/22 00:10:24;;;;;;;36.42;14.45;;;;;;;-1.33;100.00;102425.81;5070834;28;20028;-77
2021/12/22 00:12:50;;;;;;;;;;;;;;;-1.38;100.00;102417.22;5071476;28;20035;-76
2021/12/22 00:15:16;;;;;;;34.58;15.52;;;;;;;-1.35;100.00;102427.63;5088790;28;20441;-76
2021/12/22 00:17:42;;;;;;;;;;;;;;;-1.37;100.00;102424.19;5070971;28;20063;-77
2021/12/22 00:20:10;;;;;;;33.47;15.70;;;;;;;-1.45;100.00;102404.34;5087566;28;19912;-77
2021/12/22 00:22:36;;;;;;;37.75;16.90;;;;;;;-1.46;100.00;102408.72;5070800;28;20606;-77
2021/12/22 00:25:03;;;;;;;29.23;15.07;;;;;;;-1.39;100.00;102431.22;5088555;28;20558;-77
2021/12/22 00:27:29;;;;;;;33.53;17.02;;;;;;;-1.44;100.00;102420.03;5070500;28;20103;-77
2021/12/22 00:29:54;;;;;;;35.63;16.30;;;;;;;-1.48;100.00;102421.00;5053843;28;20028;-77
2021/12/22 00:32:21;;;;;;;29.90;15.10;;;;;;;-1.49;100.00;102414.06;5070231;28;20036;-77
2021/12/22 00:34:52;;;;;;;33.15;14.90;;;;;;;-1.57;100.00;102418.63;5070700;28;20035;-77
2021/12/22 00:37:23;;;;;;;37.50;16.50;;;;;;;-1.63;100.00;102410.97;5088514;28;20036;-77
2021/12/22 00:39:50;;;;;;;28.52;16.40;;;;;;;-1.58;100.00;102425.66;5070415;28;20420;-77
2021/12/22 00:42:17;;;;;;;34.38;15.75;;;;;;;-1.46;100.00;102455.88;5070502;28;20031;-77
2021/12/22 00:44:46;;;;;;;26.83;15.20;;;;;;;-1.58;100.00;102423.03;5070136;28;20406;-77
2021/12/22 00:47:12;;;;;;;34.28;17.30;;;;;;;-1.62;100.00;102408.28;5053706;28;20142;-77
2021/12/22 00:49:37;;;;;;;36.83;17.05;;;;;;;-1.70;100.00;102395.44;5053569;28;20256;-77
2021/12/22 00:52:03;;;;;;;35.83;16.33;;;;;;;-1.66;100.00;102405.81;5088454;28;20125;-77
2021/12/22 00:54:29;;;;;;;;;;;;;;;-1.66;100.00;102405.81;5053728;28;20040;-77
2021/12/22 00:57:01;;;;;;;30.88;15.63;;;;;;;-1.77;100.00;102377.31;5069926;28;20039;-77
2021/12/22 00:59:26;;;;;;;37.45;14.18;;;;;;;-1.93;100.00;102361.16;5069876;28;20032;-77
2021/12/22 01:01:52;;;;;;;31.65;15.98;;;;;;;-1.89;100.00;102368.03;5069875;28;20075;-77
2021/12/22 01:04:18;;;;;;;35.90;15.20;;;;;;;-1.99;100.00;102356.97;5087990;28;20032;-77
2021/12/22 01:06:44;;;;;;;34.65;15.57;;;;;;;-2.16;100.00;102333.00;5053147;28;20020;-77
2021/12/22 01:09:09;;;;;;;;;;;;;;;-1.88;100.00;102400.31;5069840;28;20032;-77
2021/12/22 01:11:35;;;;;;;33.15;17.40;;;;;;;-2.01;100.00;102384.09;5070090;28;19957;-77
2021/12/22 01:14:02;;;;;;;35.83;16.00;;;;;;;-1.97;100.00;102393.56;5069833;28;20492;-77
2021/12/22 01:16:27;;;;;;;37.85;15.70;;;;;;;-1.98;100.00;102399.72;5052622;28;20495;-77
2021/12/22 01:18:53;;;;;;;35.20;16.90;;;;;;;-2.01;100.00;102384.09;5069533;28;20169;-77
2021/12/22 01:21:35;;;;;;;29.25;15.60;;;;;;;-2.09;100.00;102373.81;5088038;28;20024;-77
2021/12/22 01:24:12;;;;;;;32.42;16.92;;;;;;;-2.07;100.00;102385.09;5069507;28;20036;-77
2021/12/22 01:26:44;;;;;;;36.25;15.82;;;;;;;-2.07;100.00;102384.25;5069692;28;20541;-77
2021/12/22 01:29:10;;;;;;;31.70;15.57;;;;;;;-2.03;100.00;102396.38;5052581;28;20282;-77
2021/12/22 01:31:35;;;;;;;32.47;17.13;;;;;;;-2.10;100.00;102379.09;5052743;28;20438;-77
2021/12/22 01:34:00;;;;;;;34.35;16.60;;;;;;;-2.15;100.00;102376.63;5087124;28;20035;-77
2021/12/22 01:36:26;;;;;;;28.92;16.50;;;;;;;-2.23;100.00;102358.47;5069634;28;20600;-77
2021/12/22 01:38:52;;;;;;;39.38;15.77;;;;;;;-2.17;100.00;102366.19;5069218;28;20027;-77
2021/12/22 01:41:17;;;;;;;38.83;17.58;;;;;;;-2.13;100.00;102377.44;5087249;28;20525;-77
2021/12/22 01:43:43;;;;;;;31.90;16.80;;;;;;;-2.14;100.00;102376.56;5087553;28;20036;-77
2021/12/22 01:49:10;;;;;;;27.33;15.30;;;;;;;-2.16;100.00;102351.31;5068248;28;20549;-77
2021/12/22 01:51:40;;;;;;;31.45;16.10;;;;;;;-2.15;100.00;102351.28;5069204;28;20054;-77
2021/12/22 01:54:14;;;;;;;37.45;16.00;;;;;;;-2.22;100.00;102334.03;5052178;28;20131;-77
2021/12/22 01:56:41;;;;;;;37.40;16.35;;;;;;;-2.25;100.00;102318.41;5052229;28;20127;-77
2021/12/22 01:59:08;;;;;;;29.95;15.32;;;;;;;-2.27;100.00;102317.63;5051931;28;20047;-77
2021/12/22 02:01:34;;;;;;;33.13;14.90;;;;;;;-2.31;100.00;102302.91;5068599;28;20466;-77
2021/12/22 02:04:01;;;;;;;;;;;;;;;-2.30;100.00;102315.06;5052592;28;20040;-77
2021/12/22 02:06:26;;;;;;;36.90;15.88;;;;;;;-2.39;100.00;102291.75;5068913;28;20014;-77
2021/12/22 02:08:54;;;;;;;34.88;17.38;;;;;;;-2.44;100.00;102264.88;5086452;28;20181;-77
2021/12/22 02:11:20;;;;;;;40.80;14.93;;;;;;;-2.59;100.00;102253.94;5086871;28;20028;-77
2021/12/22 02:13:51;;;;;;;28.40;14.82;;;;;;;-2.39;100.00;102276.06;5068482;28;20482;-77
2021/12/22 02:16:19;;;;;;;28.88;15.13;;;;;;;-2.46;100.00;102267.56;5086936;28;20051;-77
2021/12/22 02:18:50;;;;;;;33.22;15.35;;;;;;;-2.51;100.00;102256.34;5086708;28;20504;-77
2021/12/22 02:21:17;;;;;;;33.83;14.63;;;;;;;-2.47;100.00;102264.97;5051855;28;20038;-77
2021/12/22 02:23:43;;;;;;;30.17;14.25;;;;;;;-2.48;100.00;102258.00;5068161;28;20547;-77
2021/12/22 02:26:15;;;;;;;26.73;14.85;;;;;;;-2.49;100.00;102256.31;5068448;28;20176;-77
2021/12/22 02:28:45;;;;;;;30.38;13.70;;;;;;;-2.53;100.00;102236.34;5083250;28;20561;-77
2021/12/22 02:31:15;;;;;;;29.48;15.23;;;;;;;-2.47;100.00;102257.97;5068268;28;20047;-77
2021/12/22 02:33:42;;;;;;;33.75;14.48;;;;;;;-2.60;100.00;102240.88;5067997;28;20036;-77
2021/12/22 02:36:23;;;;;;;33.22;14.63;;;;;;;-2.62;100.00;102230.50;5068397;28;20063;-77
2021/12/22 02:38:52;;;;;;;40.17;16.75;;;;;;;-2.59;100.00;102246.09;5068058;28;20032;-77
2021/12/22 02:41:21;;;;;;;31.67;14.73;;;;;;;-2.64;100.00;102236.66;5086391;28;20119;-77
2021/12/22 02:43:49;;;;;;;39.95;16.00;;;;;;;-2.63;100.00;102235.75;5086016;28;20305;-77
2021/12/22 02:46:17;;;;;;;33.55;15.38;;;;;;;-2.73;100.00;102222.06;5051529;28;20039;-77
2021/12/22 02:48:43;;;;;;;50.90;16.08;;;;;;;-2.71;100.00;102222.91;5067765;28;20028;-77
2021/12/22 02:51:09;;;;;;;23.77;13.95;;;;;;;-2.84;100.00;102201.44;5051274;28;20040;-77
2021/12/22 02:53:49;;;;;;;31.85;15.02;;;;;;;-2.79;100.00;102215.25;5068104;28;20359;-77
2021/12/22 03:01:40;;;;;;;32.05;15.65;;;;;;;-2.94;100.00;102192.13;5085446;28;20111;-77
2021/12/22 03:04:12;;;;;;;37.33;15.52;;;;;;;-3.00;100.00;102187.06;5067897;28;20127;-77
2021/12/22 03:09:24;;;;;;;35.03;16.63;;;;;;;-2.95;100.00;102233.97;5067398;28;20048;-77
2021/12/22 03:11:50;;;;;;;35.50;16.73;;;;;;;-2.98;100.00;102235.75;5068080;28;20043;-77
2021/12/22 03:14:17;;;;;;;31.05;14.48;;;;;;;-3.03;100.00;102228.94;5050988;28;20035;-77
2021/12/22 03:16:43;;;;;;;31.20;15.23;;;;;;;-3.03;100.00;102229.81;5068138;28;20397;-77
2021/12/22 03:19:10;;;;;;;34.75;14.45;;;;;;;-3.08;100.00;102230.84;5051021;28;20028;-77
2021/12/22 03:21:38;;;;;;;30.98;16.15;;;;;;;-3.08;100.00;102236.91;5050781;28;20040;-77
2021/12/22 03:24:04;;;;;;;35.35;15.85;;;;;;;-3.08;100.00;102255.19;5050681;28;20031;-77
2021/12/22 03:26:30;;;;;;;37.25;17.08;;;;;;;-3.23;100.00;102227.72;5085737;28;20038;-77
2021/12/22 03:28:55;;;;;;;38.70;17.00;;;;;;;-3.11;100.00;102259.66;5067516;28;20042;-77
2021/12/22 03:31:21;;;;;;;33.50;17.08;;;;;;;-3.22;100.00;102239.00;5067791;28;20036;-77
2021/12/22 03:33:46;;;;;;;33.63;15.30;;;;;;;-3.23;100.00;102245.09;5085415;28;20050;-77
2021/12/22 03:36:12;;;;;;;35.17;16.85;;;;;;;-3.12;100.00;102278.81;5050875;28;20043;-77
2021/12/22 03:38:38;;;;;;;34.03;19.65;;;;;;;-3.16;100.00;102269.34;5067527;28;20032;-77
2021/12/22 03:41:05;;;;;;;37.13;15.27;;;;;;;-3.29;100.00;102251.34;5053595;28;20028;-77
2021/12/22 03:43:31;;;;;;;35.33;17.45;;;;;;;-3.25;100.00;102265.22;5089548;28;20123;-77
2021/12/22 03:45:57;;;;;;;28.90;15.63;;;;;;;-3.23;100.00;102279.06;5054688;28;20032;-77
2021/12/22 03:48:24;;;;;;;32.72;16.73;;;;;;;-3.26;100.00;102282.63;5054571;28;20048;-77
2021/12/22 03:50:50;;;;;;;31.75;15.38;;;;;;;-3.15;100.00;102312.88;5054759;28;20024;-77
2021/12/22 03:53:16;;;;;;;41.63;17.60;;;;;;;-3.16;100.00;102312.03;5054691;28;20101;-76
2021/12/22 03:55:41;;;;;;;33.75;17.13;;;;;;;-3.23;100.00;102299.97;5089494;28;20474;-77
2021/12/22 03:58:07;;;;;;;34.58;17.63;;;;;;;-3.26;100.00;102294.81;5071243;28;20439;-77
2021/12/22 04:00:35;;;;;;;50.53;18.38;;;;;;;-3.29;100.00;102292.28;5054378;28;20527;-77
2021/12/22 04:03:02;;;;;;;36.13;17.02;;;;;;;-3.26;100.00;102311.34;5070927;28;20035;-77
2021/12/22 04:05:28;;;;;;;36.00;17.00;;;;;;;-3.27;100.00;102319.25;5070980;28;20031;-77
2021/12/22 04:07:55;;;;;;;36.97;18.77;;;;;;;-3.34;100.00;102299.38;5071134;28;20032;-77
2021/12/22 04:10:22;;;;;;;34.97;16.17;;;;;;;-3.30;100.00;102298.38;5089227;28;20494;-77
2021/12/22 04:12:52;;;;;;;37.40;16.67;;;;;;;-3.29;100.00;102311.44;5089222;28;20070;-78
2021/12/22 04:15:19;;;;;;;32.65;17.27;;;;;;;-3.38;100.00;102290.75;5053841;28;20497;-77
2021/12/22 04:17:45;;;;;;;40.92;17.92;;;;;;;-3.40;100.00;102296.00;5089874;28;20099;-77
2021/12/22 04:20:11;;;;;;;36.20;17.67;;;;;;;-3.28;100.00;102333.19;5071810;28;20497;-78
2021/12/22 04:22:37;;;;;;;33.30;16.58;;;;;;;-3.35;100.00;102303.72;5071657;28;20055;-77
2021/12/22 04:25:05;;;;;;;31.98;16.00;;;;;;;-3.41;100.00;102289.06;5089765;28;20482;-76
2021/12/22 04:27:31;;;;;;;36.70;17.83;;;;;;;-3.38;100.00;102305.56;5071654;28;20040;-77
2021/12/22 04:29:56;;;;;;;32.92;15.50;;;;;;;-3.33;100.00;102316.75;5083999;22;20397;-74
2021/12/22 04:32:22;;;;;;;29.85;16.67;;;;;;;-3.41;100.00;102302.13;5068123;28;20107;-74
2021/12/22 04:34:48;;;;;;;33.60;16.27;;;;;;;-3.43;100.00;102309.13;5068351;28;20044;-74
2021/12/22 04:37:13;;;;;;;27.63;15.55;;;;;;;-3.43;100.00;102313.50;5050427;28;20037;-74
2021/12/22 04:39:38;;;;;;;38.47;17.13;;;;;;;-3.42;100.00;102307.38;5050109;28;20405;-74
2021/12/22 04:42:05;;;;;;;38.95;16.75;;;;;;;-3.46;100.00;102311.81;5068711;28;20024;-74
2021/12/22 04:44:30;;;;;;;37.22;16.20;;;;;;;-3.41;100.00;102317.78;5050326;28;20091;-75
2021/12/22 04:46:55;;;;;;;29.42;15.27;;;;;;;-3.35;100.00;102326.38;5068226;28;20048;-74
2021/12/22 04:49:21;;;;;;;35.65;17.45;;;;;;;-3.44;100.00;102301.34;5049709;28;20121;-73
2021/12/22 04:51:52;;;;;;;29.08;15.88;;;;;;;-3.45;100.00;102304.84;5049214;28;20040;-75
2021/12/22 04:54:31;;;;;;;30.83;16.33;;;;;;;-3.44;100.00;102323.09;5050048;28;20309;-73
2021/12/22 04:56:57;;;;;;;30.85;15.13;;;;;;;-3.47;100.00;102312.69;5050105;28;20028;-74
2021/12/22 04:59:24;;;;;;;29.95;14.77;;;;;;;-3.44;100.00;102336.16;5067667;28;20028;-73
2021/12/22 05:01:49;;;;;;;37.92;16.52;;;;;;;-3.46;100.00;102329.25;5049891;28;20494;-74
2021/12/22 05:04:15;;;;;;;30.85;16.27;;;;;;;-3.50;100.00;102323.22;5049511;28;20036;-75
2021/12/22 05:06:40;;;;;;;32.72;15.48;;;;;;;-3.38;100.00;102352.56;5067837;28;20036;-74
2021/12/22 05:09:07;;;;;;;29.23;13.85;;;;;;;-3.34;100.00;102349.84;5049729;28;20063;-74
2021/12/22 05:11:34;;;;;;;35.53;16.15;;;;;;;-3.37;100.00;102322.94;5049609;28;20486;-74
2021/12/22 05:14:00;;;;;;;33.42;16.05;;;;;;;-3.35;100.00;102332.44;5067590;28;20150;-74
2021/12/22 05:16:26;;;;;;;30.70;14.10;;;;;;;-3.38;100.00;102316.00;5049957;28;20119;-73
2021/12/22 05:18:56;;;;;;;30.92;15.07;;;;;;;-3.44;100.00;102293.50;5067085;28;20179;-74
2021/12/22 05:21:24;;;;;;;34.47;13.23;;;;;;;-3.46;100.00;102296.16;5032970;28;20463;-74
2021/12/22 05:23:50;;;;;;;28.88;14.07;;;;;;;-3.39;100.00;102302.09;5049227;28;20490;-74
2021/12/22 05:26:16;;;;;;;39.75;14.05;;;;;;;-3.44;100.00;102283.91;5067463;28;20043;-74
2021/12/22 05:28:41;;;;;;;29.75;13.60;;;;;;;-3.45;100.00;102292.63;5067030;28;20028;-74
2021/12/22 05:31:07;;;;;;;30.50;13.82;;;;;;;-3.36;100.00;102303.78;5067108;28;20082;-74
2021/12/22 05:33:32;;;;;;;27.45;12.98;;;;;;;-3.40;100.00;102280.31;5049526;28;20062;-74
2021/12/22 05:35:58;;;;;;;28.08;13.85;;;;;;;-3.41;100.00;102265.56;5049515;28;20079;-74
2021/12/22 05:38:24;;;;;;;32.10;13.60;;;;;;;-3.41;100.00;102268.16;5067557;28;20060;-74
2021/12/22 05:40:49;;;;;;;29.92;14.23;;;;;;;-3.46;100.00;102245.69;5049708;28;20038;-73
2021/12/22 05:43:15;;;;;;;27.45;12.73;;;;;;;-3.45;100.00;102243.00;5067598;28;20402;-74
2021/12/22 05:45:41;;;;;;;35.80;14.70;;;;;;;-3.48;100.00;102237.88;5049532;28;20040;-74
2021/12/22 05:48:06;;;;;;;30.08;13.43;;;;;;;-3.49;100.00;102237.91;5032927;28;20397;-74
2021/12/22 05:50:32;;;;;;;34.05;16.40;;;;;;;-3.54;100.00;102217.13;5049552;28;20037;-74
2021/12/22 05:52:57;;;;;;;27.10;13.10;;;;;;;-3.54;100.00;102224.94;5067571;28;20442;-73
2021/12/22 05:55:23;;;;;;;22.95;12.15;;;;;;;-3.55;100.00;102217.16;5032710;28;20119;-74
2021/12/22 05:57:49;;;;;;;22.70;12.07;;;;;;;-3.52;100.00;102236.22;5049347;28;20031;-74
2021/12/22 06:00:14;;;;;;;26.90;12.82;;;;;;;-3.54;100.00;102237.16;5049205;28;20378;-74
2021/12/22 06:02:41;;;;;;;;;;;;;;;-3.49;100.00;102253.56;5067354;28;20033;-75
2021/12/22 06:05:07;;;;;;;31.45;12.90;;;;;;;-3.49;100.00;102261.41;5048374;28;20279;-74
2021/12/22 06:07:32;;;;;;;27.08;12.88;;;;;;;-3.47;100.00;102278.75;5067130;28;20477;-73
2021/12/22 06:09:58;;;;;;;24.85;11.30;;;;;;;-3.41;100.00;102291.69;5049132;28;20043;-74
2021/12/22 06:12:23;;;;;;;31.15;14.25;;;;;;;-3.34;100.00;102308.06;5032626;28;20048;-73
2021/12/22 06:14:49;;;;;;;27.20;10.60;;;;;;;-3.30;100.00;102317.56;5048790;28;20127;-75
2021/12/22 06:17:14;;;;;;;27.17;12.68;;;;;;;-3.22;100.00;102326.06;5032600;28;20037;-74
2021/12/22 06:19:40;;;;;;;27.05;10.95;;;;;;;-3.22;100.00;102322.59;5032142;28;20024;-74
2021/12/22 06:22:05;;;;;;;27.42;12.20;;;;;;;-3.24;100.00;102313.94;5049335;28;20409;-74
2021/12/22 06:24:30;;;;;;;27.38;12.60;;;;;;;-3.24;100.00;102301.72;5032152;28;20111;-74
2021/12/22 06:26:58;;;;;;;27.23;11.23;;;;;;;-3.17;100.00;102310.28;5066996;28;20154;-74
2021/12/22 06:29:24;;;;;;;27.05;13.40;;;;;;;-3.31;100.00;102254.91;5048863;28;20043;-74
2021/12/22 06:31:51;;;;;;;23.90;10.50;;;;;;;-3.25;100.00;102257.38;5048775;28;20859;-75
2021/12/22 06:34:16;;;;;;;;;;;;;;;-3.26;100.00;102256.50;5067016;28;20090;-74
2021/12/22 06:36:41;;;;;;;23.95;11.40;;;;;;;-3.31;100.00;102237.47;5066737;28;19908;-74
2021/12/22 06:39:07;;;;;;;27.73;12.80;;;;;;;-3.26;100.00;102232.13;5066425;28;20036;-74
2021/12/22 06:41:33;;;;;;;23.60;10.00;;;;;;;-3.30;100.00;102207.84;5048472;28;20040;-73
2021/12/22 06:43:59;;;;;;;27.48;11.35;;;;;;;-3.40;100.00;102183.69;5066024;28;20464;-73
2021/12/22 06:46:24;;;;;;;26.17;11.75;;;;;;;-3.30;100.00;102194.78;5066137;28;20028;-74
2021/12/22 06:48:49;;;;;;;25.60;12.48;;;;;;;-3.25;100.00;102186.84;5031368;28;20576;-74
2021/12/22 06:51:15;;;;;;;22.65;10.38;;;;;;;-3.29;100.00;102166.91;5048429;28;20141;-75
2021/12/22 06:53:40;;;;;;;23.45;11.40;;;;;;;-3.30;100.00;102170.41;5066016;28;20033;-75
2021/12/22 06:56:06;;;;;;;22.95;11.32;;;;;;;-3.40;100.00;102149.75;5048493;28;20056;-74
2021/12/22 06:58:32;;;;;;;27.23;12.02;;;;;;;-3.29;100.00;102165.16;5048607;28;20492;-75
2021/12/22 07:00:58;;;;;;;23.92;11.07;;;;;;;-3.34;100.00;102151.34;5048247;28;20024;-73
2021/12/22 07:03:25;;;;;;;25.92;10.70;;;;;;;-3.29;100.00;102179.97;5066348;28;20126;-75
2021/12/22 07:05:51;;;;;;;20.42;10.45;;;;;;;-3.24;100.00;102196.38;5031790;28;20080;-74
2021/12/22 07:08:16;;;;;;;20.92;10.38;;;;;;;-3.20;100.00;102198.88;5048409;28;20036;-74
2021/12/22 07:10:43;;;;;;;24.08;11.63;;;;;;;-3.17;100.00;102197.94;5048621;28;20044;-74
2021/12/22 07:13:10;;;;;;;23.90;10.93;;;;;;;-3.22;100.00;102179.78;5048326;28;20028;-74
2021/12/22 07:15:36;;;;;;;20.38;10.45;;;;;;;-3.21;100.00;102183.22;5048051;28;20041;-74
2021/12/22 07:18:02;;;;;;;25.90;11.13;;;;;;;-3.37;100.00;102129.66;5031707;28;20039;-74
2021/12/22 07:20:28;;;;;;;24.50;10.98;;;;;;;-3.23;100.00;102174.56;5066134;28;20032;-74
2021/12/22 07:22:53;;;;;;;23.48;10.40;;;;;;;-3.17;100.00;102187.50;5048472;28;20028;-74
2021/12/22 07:25:23;;;;;;;23.73;10.73;;;;;;;-3.25;100.00;102160.72;5046896;28;20048;-74
2021/12/22 07:27:49;;;;;;;18.17;10.00;;;;;;;-3.19;100.00;102171.00;5066165;28;20045;-74
2021/12/22 07:30:15;;;;;;;21.92;9.82;;;;;;;-3.28;100.00;102129.44;5047884;28;20067;-74
2021/12/22 07:32:40;;;;;;;20.20;9.55;;;;;;;-3.24;100.00;102121.47;5048135;28;20068;-74
2021/12/22 07:35:10;;;;;;;23.75;10.45;;;;;;;-3.21;100.00;102138.81;5065885;28;20043;-74
2021/12/22 07:37:46;;;;;;;25.83;11.25;;;;;;;-3.26;100.00;102107.59;5048219;28;20044;-74
2021/12/22 07:40:17;;;;;;;19.02;9.88;;;;;;;-3.37;100.00;102099.22;5048024;28;20082;-75
2021/12/22 07:42:43;;;;;;;24.40;11.30;;;;;;;-3.28;100.00;102119.00;5066125;28;20052;-74
2021/12/22 07:45:10;;;;;;;19.85;9.80;;;;;;;-3.23;100.00;102120.59;5065701;28;20473;-75
2021/12/22 07:47:35;;;;;;;27.40;11.48;;;;;;;-3.19;100.00;102129.19;5065845;28;20406;-74
2021/12/22 07:50:01;;;;;;;30.95;11.02;;;;;;;-3.22;100.00;102114.47;5065955;28;20047;-75
2021/12/22 07:52:27;;;;;;;19.55;10.90;;;;;;;-3.25;100.00;102105.88;5065987;28;20028;-74
2021/12/22 07:54:56;;;;;;;;;;;;;;;-3.13;100.00;102133.44;5047959;28;20111;-74
2021/12/22 07:57:22;;;;;;;22.58;10.65;;;;;;;-3.16;100.00;102123.03;5064222;28;19912;-74
2021/12/22 07:59:47;;;;;;;21.63;11.30;;;;;;;-3.16;100.00;102129.13;5065626;28;20492;-74
2021/12/22 08:02:14;;;;;;;23.55;11.60;;;;;;;-3.18;100.00;102115.25;5065402;28;20056;-74
2021/12/22 08:04:40;;;;;;;28.98;12.70;;;;;;;-3.28;100.00;102092.88;5065569;28;20029;-74
2021/12/22 08:07:05;;;;;;;20.80;10.52;;;;;;;-3.23;100.00;102123.22;5052618;28;20409;-74
2021/12/22 08:09:31;;;;;;;21.92;10.52;;;;;;;-3.30;99.96;102092.03;5047479;28;20103;-74
2021/12/22 08:12:04;;;;;;;27.80;11.15;;;;;;;-3.38;100.00;102086.19;5047849;28;20482;-74
2021/12/22 08:14:33;;;;;;;26.05;10.93;;;;;;;-3.45;99.91;102081.09;5047437;28;20485;-74
2021/12/22 08:16:58;;;;;;;22.65;10.32;;;;;;;-3.49;100.00;102084.72;5046903;28;20124;-73
2021/12/22 08:19:24;;;;;;;19.38;10.13;;;;;;;-3.42;99.81;102101.06;5065342;28;20111;-74
2021/12/22 08:21:49;;;;;;;23.50;10.35;;;;;;;-3.23;100.00;102144.13;5031127;28;20032;-74
2021/12/22 08:24:14;;;;;;;28.27;10.27;;;;;;;-3.19;99.71;102145.72;5065266;28;20482;-74
2021/12/22 08:26:40;;;;;;;25.40;9.93;;;;;;;-3.42;99.39;102081.06;5031627;28;20032;-74
2021/12/22 08:29:06;;;;;;;23.65;9.35;;;;;;;-3.38;99.35;102080.97;5068680;28;20044;-74
2021/12/22 08:31:31;;;;;;;21.90;10.65;;;;;;;-3.36;99.36;102073.94;5038076;28;20025;-73
2021/12/22 08:33:57;;;;;;;28.15;10.25;;;;;;;-3.36;99.06;102071.34;5047152;28;20037;-74
2021/12/22 08:39:12;;;;;;;21.60;11.25;;;;;;;-3.32;99.05;102081.66;5048760;28;20398;-74
2021/12/22 08:41:40;;;;;;;23.23;10.18;;;;;;;-3.30;99.05;102086.81;5047928;28;20028;-74
2021/12/22 08:44:11;;;;;;;32.17;9.75;;;;;;;-3.19;98.99;102109.16;5047372;28;20032;-74
2021/12/22 08:46:39;;;;;;;20.52;10.25;;;;;;;-3.21;98.64;102076.13;5014340;28;20033;-73
2021/12/22 08:49:06;;;;;;;35.05;11.82;;;;;;;-3.17;98.51;102096.06;5047010;28;20086;-74
2021/12/22 08:51:32;;;;;;;21.48;10.20;;;;;;;-3.13;98.42;102105.53;5048455;28;20025;-74
2021/12/22 08:54:00;;;;;;;23.30;10.18;;;;;;;-3.15;98.55;102075.97;5048285;28;20037;-74
2021/12/22 08:56:26;;;;;;;21.30;9.30;;;;;;;-3.16;98.24;102076.00;5048504;28;20490;-74
2021/12/22 08:58:51;;;;;;;;;;;;;;;-3.11;98.26;102100.28;5047622;28;20134;-73
2021/12/22 09:01:17;;;;;;;20.90;9.60;;;;;;;-3.03;98.18;102114.81;5050078;28;20055;-73
2021/12/22 09:03:42;;;;;;;23.35;9.77;;;;;;;-2.99;98.03;102120.84;5043404;28;20070;-73
2021/12/22 09:06:08;;;;;;;18.55;9.93;;;;;;;-3.24;97.79;102055.31;5023791;28;20171;-73
2021/12/22 09:08:33;;;;;;;21.90;10.30;;;;;;;-3.12;97.74;102083.72;5046906;28;20031;-73
2021/12/22 09:10:59;;;;;;;23.77;10.32;;;;;;;-3.16;97.63;102063.84;5048831;28;20040;-73
2021/12/22 09:13:24;;;;;;;23.00;10.00;;;;;;;-3.09;97.69;102088.88;5046405;28;20048;-73
2021/12/22 09:15:50;;;;;;;19.17;9.23;;;;;;;-3.06;97.30;102094.03;5047576;28;20036;-74
2021/12/22 09:18:17;;;;;;;21.30;9.50;;;;;;;-3.05;97.68;102100.09;5047680;28;20033;-73
2021/12/22 09:20:42;;;;;;;20.45;10.93;;;;;;;-3.03;97.49;102093.91;5032391;28;20052;-74
2021/12/22 09:23:07;;;;;;;24.58;10.45;;;;;;;-3.12;97.42;102068.03;5049556;28;20553;-74
2021/12/22 09:25:33;;;;;;;28.20;12.18;;;;;;;-3.09;97.54;102072.31;5046314;28;20025;-73
2021/12/22 09:28:00;;;;;;;25.45;11.75;;;;;;;-3.04;97.36;102086.16;5046558;28;20083;-73
2021/12/22 09:30:27;;;;;;;24.67;10.27;;;;;;;-3.04;97.37;102080.91;5048974;28;20040;-76
2021/12/22 09:32:52;;;;;;;21.10;9.73;;;;;;;-3.08;97.18;102077.53;5052284;28;20127;-74
2021/12/22 09:35:18;;;;;;;21.00;10.68;;;;;;;-3.04;97.29;102071.31;5067607;28;20044;-73
2021/12/22 09:37:44;;;;;;;24.02;11.45;;;;;;;-3.09;97.34;102057.53;5050890;28;20096;-75
2021/12/22 09:40:10;;;;;;;23.70;9.82;;;;;;;-2.89;97.18;102111.00;5067758;28;20146;-73
2021/12/22 09:42:35;;;;;;;;;;;;;;;-2.84;96.99;102114.31;5051339;28;20118;-76
2021/12/22 09:45:02;;;;;;;22.10;9.77;;;;;;;-2.94;96.82;102082.38;5085824;28;19919;-73
2021/12/22 09:47:32;;;;;;;24.95;10.65;;;;;;;-2.89;96.66;102093.53;5049777;28;20050;-76
2021/12/22 09:50:07;;;;;;;26.95;10.05;;;;;;;-3.01;96.63;102046.84;5068817;28;20126;-74
2021/12/22 09:52:34;;;;;;;21.77;10.48;;;;;;;-3.03;96.66;102046.03;5087268;28;20028;-73
2021/12/22 09:55:01;;;;;;;18.45;9.80;;;;;;;-3.02;96.59;102053.84;5086832;28;20040;-75
2021/12/22 09:57:27;;;;;;;;;;;;;;;-2.94;96.38;102071.06;5069342;28;20039;-74
2021/12/22 09:59:55;;;;;;;20.52;10.10;;;;;;;-2.86;96.11;102095.22;5068682;28;19969;-73
2021/12/22 10:02:27;;;;;;;19.80;9.40;;;;;;;-2.85;96.15;102078.66;5087042;28;20485;-73
2021/12/22 10:04:52;;;;;;;22.33;9.77;;;;;;;-2.90;95.95;102060.47;5068804;28;20059;-73
2021/12/22 10:07:25;;;;;;;23.23;11.05;;;;;;;-2.78;95.73;102086.25;5052482;28;20132;-73
2021/12/22 10:09:51;;;;;;;21.02;9.98;;;;;;;-2.85;95.81;102047.28;5051746;28;20040;-76
2021/12/22 10:12:22;;;;;;;27.00;10.77;;;;;;;-2.88;95.65;102040.38;5086913;28;20481;-74
2021/12/22 10:14:56;;;;;;;21.65;9.57;;;;;;;-3.23;95.58;101976.06;5051128;28;20028;-73
2021/12/22 10:17:26;;;;;;;22.98;9.65;;;;;;;-3.17;95.70;101993.31;5068877;28;20134;-73
2021/12/22 10:19:53;;;;;;;21.55;9.02;;;;;;;-3.13;95.65;102010.63;5068375;28;20032;-74
2021/12/22 10:22:18;;;;;;;26.77;11.10;;;;;;;-3.11;95.49;102014.91;5051787;28;20024;-75
2021/12/22 10:24:46;;;;;;;27.15;10.82;;;;;;;-3.07;95.58;102024.34;5068402;28;20027;-76
2021/12/22 10:27:20;;;;;;;23.48;9.70;;;;;;;-3.21;95.51;101976.88;5051750;28;20036;-76
2021/12/22 10:29:46;;;;;;;23.50;10.23;;;;;;;-3.23;95.55;101976.06;5069192;22;20072;-76
2021/12/22 10:32:13;;;;;;;;;;;;;;;-3.19;95.50;101988.97;5009211;28;20501;-77
2021/12/22 10:34:59;;;;;;;25.13;10.18;;;;;;;-3.19;95.42;101980.31;4992077;28;19913;-76
2021/12/22 10:37:39;;;;;;;21.42;9.95;;;;;;;-3.08;95.54;102016.56;5008790;28;20029;-76
2021/12/22 10:40:23;;;;;;;22.60;10.45;;;;;;;-3.19;95.50;101978.53;5026262;28;20045;-76
2021/12/22 10:42:50;;;;;;;26.58;10.23;;;;;;;-3.16;95.45;101993.28;5008494;28;20038;-77
2021/12/22 10:45:16;;;;;;;24.33;9.55;;;;;;;-3.12;95.56;102017.56;5008425;28;20028;-76
2021/12/22 10:50:53;;;;;;;26.88;12.45;;;;;;;-3.10;95.54;102013.16;4975086;28;20527;-77
2021/12/22 10:53:18;;;;;;;25.48;9.77;;;;;;;-3.00;95.40;102038.97;5026237;28;20506;-76
2021/12/22 10:55:46;;;;;;;23.98;9.88;;;;;;;-2.83;95.22;102063.78;4991883;28;20057;-76
2021/12/22 10:58:16;;;;;;;25.85;11.63;;;;;;;-2.96;94.84;102013.59;5008258;28;20442;-76
2021/12/22 11:00:41;;;;;;;25.52;10.65;;;;;;;-2.98;95.09;102004.94;4991709;28;20071;-76
2021/12/22 11:03:10;;;;;;;35.33;11.98;;;;;;;-3.11;94.87;101967.88;4992004;28;20065;-76
2021/12/22 11:05:47;;;;;;;27.67;11.35;;;;;;;-2.92;94.98;102015.22;5025670;28;20541;-76
2021/12/22 11:08:21;;;;;;;34.17;10.82;;;;;;;-2.94;95.07;102013.56;5007776;28;20017;-77
2021/12/22 11:10:47;;;;;;;24.83;10.45;;;;;;;-3.03;94.99;101981.56;5025564;28;20045;-76
2021/12/22 11:13:19;;;;;;;24.13;9.90;;;;;;;-2.90;94.73;102004.72;5008114;28;20095;-77
2021/12/22 11:15:45;;;;;;;32.97;11.45;;;;;;;-2.74;95.02;102046.94;5008230;28;20030;-76
2021/12/22 11:18:28;;;;;;;27.70;11.70;;;;;;;-2.86;95.19;102014.19;5007953;28;20544;-76
2021/12/22 11:21:12;;;;;;;31.20;10.85;;;;;;;-2.90;94.96;101999.50;5008192;28;20045;-76
2021/12/22 11:23:38;;;;;;;26.63;11.32;;;;;;;-2.95;95.27;102004.00;5025325;28;20073;-77